createdAt,value
2017-03-13T00:00:18.046Z,76.72
2017-03-13T00:00:46.429Z,76.72
2017-03-13T00:01:14.815Z,76.72
2017-03-13T00:01:43.098Z,76.72
2017-03-13T00:02:11.350Z,76.91
2017-03-13T00:02:39.590Z,77.01
2017-03-13T00:03:07.876Z,77.01
2017-03-13T00:03:36.217Z,76.81
2017-03-13T00:04:04.663Z,76.91
2017-03-13T00:04:32.959Z,76.52
2017-03-13T00:05:01.044Z,76.42
2017-03-13T00:05:29.395Z,76.62
2017-03-13T00:05:57.481Z,76.72
2017-03-13T00:06:25.802Z,76.58
2017-03-13T00:06:54.217Z,76.52
2017-03-13T00:07:22.651Z,76.48
2017-03-13T00:07:51.130Z,76.58
2017-03-13T00:08:19.411Z,76.48
2017-03-13T00:08:47.705Z,76.62
2017-03-13T00:09:16.197Z,76.58
2017-03-13T00:09:44.497Z,76.58
2017-03-13T00:10:12.781Z,76.58
2017-03-13T00:10:41.077Z,77.26
2017-03-13T00:11:09.247Z,77.06
2017-03-13T00:11:37.508Z,76.68
2017-03-13T00:12:05.804Z,77.06
2017-03-13T00:12:34.212Z,76.58
2017-03-13T00:13:02.405Z,76.78
2017-03-13T00:13:30.594Z,76.58
2017-03-13T00:13:58.883Z,76.78
2017-03-13T00:14:27.218Z,76.39
2017-03-13T00:14:55.395Z,76.78
2017-03-13T00:15:23.666Z,77.26
2017-03-13T00:15:52.068Z,77.06
2017-03-13T00:16:20.443Z,76.97
2017-03-13T00:16:48.824Z,77.06
2017-03-13T00:17:17.074Z,77.16
2017-03-13T00:17:45.463Z,77.16
2017-03-13T00:18:13.756Z,77.65
2017-03-13T00:18:41.951Z,77.55
2017-03-13T00:19:10.281Z,77.75
2017-03-13T00:19:38.528Z,77.45
2017-03-13T00:20:06.651Z,77.84
2017-03-13T00:20:35.145Z,78.33
2017-03-13T00:21:03.449Z,78.13
2017-03-13T00:21:31.856Z,78.23
2017-03-13T00:22:00.170Z,78.42
2017-03-13T00:22:28.613Z,78.03
2017-03-13T00:22:56.931Z,78.03
2017-03-13T00:23:25.244Z,78.03
2017-03-13T00:23:53.588Z,78.23
2017-03-13T00:24:22.776Z,78.13
2017-03-13T00:24:51.196Z,78.52
2017-03-13T00:25:19.654Z,78.23
2017-03-13T00:25:47.955Z,78.03
2017-03-13T00:26:16.328Z,78.13
2017-03-13T00:26:44.735Z,77.94
2017-03-13T00:27:13.987Z,77.94
2017-03-13T00:27:42.397Z,78.33
2017-03-13T00:28:10.646Z,77.94
2017-03-13T00:28:38.963Z,77.84
2017-03-13T00:29:07.369Z,77.75
2017-03-13T00:29:35.458Z,78.03
2017-03-13T00:30:03.933Z,78.23
2017-03-13T00:30:32.144Z,78.42
2017-03-13T00:31:00.549Z,78.42
2017-03-13T00:31:29.052Z,78.03
2017-03-13T00:31:57.628Z,78.61
2017-03-13T00:32:25.949Z,78.33
2017-03-13T00:32:54.182Z,78.48
2017-03-13T00:33:22.455Z,78.52
2017-03-13T00:33:50.575Z,78.23
2017-03-13T00:34:18.871Z,78.23
2017-03-13T00:34:47.486Z,78.38
2017-03-13T00:35:15.960Z,78.67
2017-03-13T00:35:44.255Z,78.67
2017-03-13T00:36:12.856Z,78.09
2017-03-13T00:36:41.369Z,78.29
2017-03-13T00:37:09.788Z,78.58
2017-03-13T00:37:38.156Z,78.67
2017-03-13T00:38:06.475Z,78.58
2017-03-13T00:38:34.878Z,78.38
2017-03-13T00:39:03.627Z,78.48
2017-03-13T00:39:32.202Z,78.48
2017-03-13T00:40:00.514Z,78.48
2017-03-13T00:40:28.762Z,78.58
2017-03-13T00:40:57.154Z,78.38
2017-03-13T00:41:25.346Z,78.58
2017-03-13T00:41:53.601Z,78.38
2017-03-13T00:42:21.971Z,78.48
2017-03-13T00:42:50.182Z,78.67
2017-03-13T00:43:18.503Z,78.48
2017-03-13T00:43:46.784Z,78.48
2017-03-13T00:44:15.119Z,78.48
2017-03-13T00:44:43.502Z,78.48
2017-03-13T00:45:11.679Z,78.48
2017-03-13T00:45:39.906Z,78.48
2017-03-13T00:46:08.195Z,78.29
2017-03-13T00:46:36.555Z,78.38
2017-03-13T00:47:04.951Z,78.38
2017-03-13T00:47:33.433Z,78.29
2017-03-13T00:48:02.160Z,78.38
2017-03-13T00:48:31.255Z,78.67
2017-03-13T00:48:59.605Z,78.38
2017-03-13T00:49:27.916Z,78.38
2017-03-13T00:49:56.190Z,78.67
2017-03-13T00:50:24.473Z,78.77
2017-03-13T00:50:52.733Z,78.77
2017-03-13T00:51:21.260Z,79.45
2017-03-13T00:51:49.534Z,79.25
2017-03-13T00:52:18.276Z,79.45
2017-03-13T00:52:46.665Z,78.77
2017-03-13T00:53:14.973Z,79.12
2017-03-13T00:53:43.133Z,79.12
2017-03-13T00:54:11.366Z,79.32
2017-03-13T00:54:39.720Z,79.41
2017-03-13T00:55:08.261Z,79.32
2017-03-13T00:55:37.567Z,79.12
2017-03-13T00:56:06.216Z,79.32
2017-03-13T00:56:34.672Z,79.41
2017-03-13T00:57:03.048Z,79.41
2017-03-13T00:57:31.451Z,79.32
2017-03-13T00:57:59.845Z,79.12
2017-03-13T00:58:28.452Z,79.12
2017-03-13T00:58:56.633Z,79.12
2017-03-13T00:59:24.926Z,79.6
2017-03-13T00:59:53.472Z,79.6
2017-03-13T01:00:21.586Z,79.7
2017-03-13T01:00:49.883Z,79.6
2017-03-13T01:01:18.150Z,79.22
2017-03-13T01:01:46.552Z,79.02
2017-03-13T01:02:15.017Z,79.32
2017-03-13T01:02:43.323Z,79.32
2017-03-13T01:03:11.604Z,79.41
2017-03-13T01:03:39.985Z,79.32
2017-03-13T01:04:08.250Z,79.22
2017-03-13T01:04:36.483Z,78.97
2017-03-13T01:05:04.740Z,78.83
2017-03-13T01:05:33.107Z,79.16
2017-03-13T01:06:01.576Z,78.77
2017-03-13T01:06:29.918Z,79.25
2017-03-13T01:06:58.183Z,79.35
2017-03-13T01:07:26.504Z,79.35
2017-03-13T01:07:54.933Z,78.77
2017-03-13T01:08:23.411Z,78.77
2017-03-13T01:08:51.768Z,79.06
2017-03-13T01:09:20.056Z,78.67
2017-03-13T01:09:48.352Z,78.38
2017-03-13T01:10:16.654Z,78.48
2017-03-13T01:10:45.108Z,78.58
2017-03-13T01:11:13.350Z,78.67
2017-03-13T01:11:41.821Z,78.67
2017-03-13T01:12:10.195Z,78.87
2017-03-13T01:12:38.546Z,78.87
2017-03-13T01:13:06.800Z,78.77
2017-03-13T01:13:35.093Z,78.77
2017-03-13T01:14:03.366Z,78.29
2017-03-13T01:14:31.658Z,78.19
2017-03-13T01:14:59.776Z,78.38
2017-03-13T01:15:28.204Z,78.19
2017-03-13T01:15:56.555Z,78.48
2017-03-13T01:16:24.950Z,78.52
2017-03-13T01:16:53.371Z,78.48
2017-03-13T01:17:21.883Z,78.48
2017-03-13T01:17:50.060Z,78.19
2017-03-13T01:18:18.346Z,78.19
2017-03-13T01:18:46.697Z,78.09
2017-03-13T01:19:14.893Z,78.38
2017-03-13T01:19:43.269Z,78.09
2017-03-13T01:20:11.552Z,78.29
2017-03-13T01:20:39.895Z,78.77
2017-03-13T01:21:08.229Z,78.58
2017-03-13T01:21:36.994Z,78.29
2017-03-13T01:22:05.425Z,78.77
2017-03-13T01:22:33.848Z,78.38
2017-03-13T01:23:02.045Z,78.09
2017-03-13T01:23:30.278Z,78.67
2017-03-13T01:23:58.402Z,78.77
2017-03-13T01:24:26.807Z,78.87
2017-03-13T01:24:55.157Z,78.58
2017-03-13T01:25:23.337Z,78.58
2017-03-13T01:25:51.647Z,78.48
2017-03-13T01:26:20.095Z,78.58
2017-03-13T01:26:48.430Z,78.58
2017-03-13T01:27:16.749Z,78.67
2017-03-13T01:27:44.943Z,78.87
2017-03-13T01:28:13.217Z,78.71
2017-03-13T01:28:41.629Z,78.77
2017-03-13T01:29:10.046Z,78.77
2017-03-13T01:29:38.223Z,78.67
2017-03-13T01:30:06.549Z,78.71
2017-03-13T01:30:34.903Z,78.87
2017-03-13T01:31:03.284Z,78.71
2017-03-13T01:31:31.614Z,78.52
2017-03-13T01:31:59.947Z,78.71
2017-03-13T01:32:28.204Z,78.52
2017-03-13T01:32:56.357Z,78.33
2017-03-13T01:33:24.515Z,78.52
2017-03-13T01:33:52.758Z,78.61
2017-03-13T01:34:21.157Z,78.71
2017-03-13T01:34:49.489Z,79.39
2017-03-13T01:35:17.710Z,79.3
2017-03-13T01:35:46.119Z,79.25
2017-03-13T01:36:14.374Z,79.58
2017-03-13T01:36:42.733Z,79.74
2017-03-13T01:37:11.204Z,79.93
2017-03-13T01:37:39.591Z,80.03
2017-03-13T01:38:07.863Z,80.32
2017-03-13T01:38:36.277Z,80.8
2017-03-13T01:39:04.664Z,80.62
2017-03-13T01:39:33.015Z,80.8
2017-03-13T01:40:01.296Z,81
2017-03-13T01:40:29.583Z,81.15
2017-03-13T01:40:58.286Z,81.25
2017-03-13T01:41:26.687Z,81.25
2017-03-13T01:41:55.128Z,81.25
2017-03-13T01:42:23.413Z,80.96
2017-03-13T01:42:51.798Z,81.35
2017-03-13T01:43:20.017Z,81.73
2017-03-13T01:43:48.408Z,82.41
2017-03-13T01:44:16.639Z,82.32
2017-03-13T01:44:44.983Z,83.48
2017-03-13T01:45:13.250Z,84.31
2017-03-13T01:45:41.935Z,84.79
2017-03-13T01:46:10.192Z,85.57
2017-03-13T01:46:38.464Z,86.63
2017-03-13T01:47:06.688Z,87.07
2017-03-13T01:47:35.286Z,88.43
2017-03-13T01:48:03.675Z,88.43
2017-03-13T01:48:31.893Z,89.06
2017-03-13T01:49:00.097Z,89.93
2017-03-13T01:49:28.245Z,90.12
2017-03-13T01:49:56.415Z,90.9
2017-03-13T01:50:24.820Z,90.9
2017-03-13T01:50:53.037Z,91.86
2017-03-13T01:51:21.327Z,92.01
2017-03-13T01:51:49.826Z,92.88
2017-03-13T01:52:18.185Z,93.08
2017-03-13T01:52:46.692Z,93.13
2017-03-13T01:53:14.925Z,93.41
2017-03-13T01:53:43.279Z,93.61
2017-03-13T01:54:11.542Z,94.38
2017-03-13T01:54:39.691Z,94.09
2017-03-13T01:55:07.962Z,94.87
2017-03-13T01:55:36.433Z,95.54
2017-03-13T01:56:04.832Z,95.35
2017-03-13T01:56:33.093Z,95.25
2017-03-13T01:57:01.295Z,95.3
2017-03-13T01:57:29.655Z,95.98
2017-03-13T01:57:57.796Z,96.56
2017-03-13T01:58:25.970Z,96.46
2017-03-13T01:58:54.239Z,96.75
2017-03-13T01:59:22.666Z,97.52
2017-03-13T01:59:50.853Z,97.72
2017-03-13T02:00:19.057Z,97.96
2017-03-13T02:00:47.339Z,97.86
2017-03-13T02:01:15.522Z,97.96
2017-03-13T02:01:44.113Z,97.96
2017-03-13T02:02:12.317Z,97.86
2017-03-13T02:02:40.491Z,98.73
2017-03-13T02:03:08.861Z,98.44
2017-03-13T02:03:37.248Z,98.25
2017-03-13T02:04:05.638Z,98.44
2017-03-13T02:04:33.858Z,98.63
2017-03-13T02:05:02.126Z,98.92
2017-03-13T02:05:30.464Z,98.92
2017-03-13T02:05:58.827Z,98.54
2017-03-13T02:06:27.141Z,98.34
2017-03-13T02:06:55.348Z,97.77
2017-03-13T02:07:24.207Z,97.86
2017-03-13T02:07:52.621Z,97.67
2017-03-13T02:08:20.971Z,97.77
2017-03-13T02:08:49.515Z,97.86
2017-03-13T02:09:17.828Z,98.15
2017-03-13T02:09:46.390Z,97.96
2017-03-13T02:10:14.853Z,98.15
2017-03-13T02:10:43.064Z,97.96
2017-03-13T02:11:11.683Z,97.86
2017-03-13T02:11:39.941Z,97.81
2017-03-13T02:12:08.249Z,97.91
2017-03-13T02:12:36.500Z,97.62
2017-03-13T02:13:04.700Z,97.72
2017-03-13T02:13:34.553Z,97.72
2017-03-13T02:14:02.789Z,98.44
2017-03-13T02:14:31.409Z,98.29
2017-03-13T02:14:59.775Z,98.29
2017-03-13T02:15:28.499Z,98.39
2017-03-13T02:15:56.854Z,98.39
2017-03-13T02:16:25.035Z,98.29
2017-03-13T02:16:53.254Z,97.81
2017-03-13T02:17:21.820Z,97.91
2017-03-13T02:17:50.451Z,98.2
2017-03-13T02:18:18.740Z,98.29
2017-03-13T02:18:46.922Z,98.2
2017-03-13T02:19:15.200Z,98.68
2017-03-13T02:19:43.595Z,98.39
2017-03-13T02:20:11.952Z,98.97
2017-03-13T02:20:40.291Z,99.07
2017-03-13T02:21:08.625Z,99.55
2017-03-13T02:21:36.835Z,99.5
2017-03-13T02:22:04.996Z,99.45
2017-03-13T02:22:33.325Z,99.26
2017-03-13T02:23:01.591Z,99.45
2017-03-13T02:23:29.858Z,99.5
2017-03-13T02:23:58.169Z,99.69
2017-03-13T02:24:26.487Z,99.99
2017-03-13T02:24:54.965Z,99.99
2017-03-13T02:25:23.394Z,99.99
2017-03-13T02:25:51.704Z,99.88
2017-03-13T02:26:20.025Z,99.99
2017-03-13T02:26:48.256Z,99.99
2017-03-13T02:27:16.458Z,99.98
2017-03-13T02:27:44.827Z,99.88
2017-03-13T02:28:13.315Z,99.88
2017-03-13T02:28:41.682Z,99.88
2017-03-13T02:29:10.134Z,99.69
2017-03-13T02:29:38.476Z,99.69
2017-03-13T02:30:06.729Z,99.88
2017-03-13T02:30:35.017Z,99.88
2017-03-13T02:31:03.356Z,99.98
2017-03-13T02:31:31.590Z,99.99
2017-03-13T02:31:59.900Z,99.88
2017-03-13T02:32:28.038Z,99.98
2017-03-13T02:32:56.350Z,99.99
2017-03-13T02:33:24.798Z,99.69
2017-03-13T02:33:53.191Z,99.21
2017-03-13T02:34:21.468Z,99.98
2017-03-13T02:34:49.781Z,99.3
2017-03-13T02:35:18.046Z,99.21
2017-03-13T02:35:46.404Z,99.3
2017-03-13T02:36:14.697Z,99.3
2017-03-13T02:36:43.118Z,99.88
2017-03-13T02:37:11.393Z,99.99
2017-03-13T02:37:39.575Z,99.98
2017-03-13T02:38:07.721Z,99.98
2017-03-13T02:38:35.974Z,99.99
2017-03-13T02:39:04.068Z,99.98
2017-03-13T02:39:32.332Z,99.99
2017-03-13T02:40:00.772Z,99.99
2017-03-13T02:40:29.095Z,99.99
2017-03-13T02:40:57.424Z,99.99
2017-03-13T02:41:25.750Z,99.99
2017-03-13T02:41:54.018Z,99.99
2017-03-13T02:42:22.104Z,99.99
2017-03-13T02:42:50.238Z,99.88
2017-03-13T02:43:18.623Z,99.98
2017-03-13T02:43:46.896Z,99.99
2017-03-13T02:44:15.108Z,99.99
2017-03-13T02:44:43.301Z,99.99
2017-03-13T02:45:11.573Z,99.98
2017-03-13T02:45:39.781Z,99.69
2017-03-13T02:46:08.145Z,99.4
2017-03-13T02:46:36.443Z,99.26
2017-03-13T02:47:04.825Z,99.16
2017-03-13T02:47:33.222Z,99.26
2017-03-13T02:48:01.431Z,99.45
2017-03-13T02:48:29.626Z,99.35
2017-03-13T02:48:57.841Z,98.87
2017-03-13T02:49:26.222Z,98.68
2017-03-13T02:49:54.490Z,98.58
2017-03-13T02:50:22.737Z,98.68
2017-03-13T02:50:51.064Z,98.78
2017-03-13T02:51:19.290Z,98.58
2017-03-13T02:51:47.567Z,98.39
2017-03-13T02:52:15.845Z,98.87
2017-03-13T02:52:44.151Z,98.78
2017-03-13T02:53:12.234Z,98.87
2017-03-13T02:53:40.651Z,98.78
2017-03-13T02:54:08.897Z,98.97
2017-03-13T02:54:37.144Z,98.78
2017-03-13T02:55:05.364Z,98.68
2017-03-13T02:55:33.665Z,98.68
2017-03-13T02:56:01.840Z,98.39
2017-03-13T02:56:30.013Z,98.39
2017-03-13T02:56:58.257Z,98.87
2017-03-13T02:57:26.491Z,98.49
2017-03-13T02:57:54.645Z,98.87
2017-03-13T02:58:22.921Z,98.78
2017-03-13T02:58:50.994Z,98.87
2017-03-13T02:59:19.146Z,98.87
2017-03-13T02:59:47.436Z,98.68
2017-03-13T03:00:15.842Z,98.68
2017-03-13T03:00:44.157Z,99.26
2017-03-13T03:01:12.446Z,99.55
2017-03-13T03:01:40.729Z,99.55
2017-03-13T03:02:08.977Z,98.78
2017-03-13T03:02:37.263Z,98.97
2017-03-13T03:03:05.639Z,98.78
2017-03-13T03:03:33.966Z,98.68
2017-03-13T03:04:02.462Z,98.78
2017-03-13T03:04:30.834Z,98.97
2017-03-13T03:04:58.977Z,98.58
2017-03-13T03:05:27.261Z,98.78
2017-03-13T03:05:55.607Z,98.78
2017-03-13T03:06:23.750Z,98.39
2017-03-13T03:06:51.904Z,98.49
2017-03-13T03:07:20.032Z,98.29
2017-03-13T03:07:48.477Z,99.16
2017-03-13T03:08:16.806Z,98.68
2017-03-13T03:08:45.106Z,98.87
2017-03-13T03:09:13.356Z,98.97
2017-03-13T03:09:41.745Z,99.07
2017-03-13T03:10:09.925Z,98.49
2017-03-13T03:10:38.030Z,98.87
2017-03-13T03:11:06.202Z,98.87
2017-03-13T03:11:34.402Z,98.49
2017-03-13T03:12:02.651Z,98.68
2017-03-13T03:12:30.886Z,98.68
2017-03-13T03:12:59.100Z,98.39
2017-03-13T03:13:27.302Z,98.39
2017-03-13T03:13:55.488Z,98.97
2017-03-13T03:14:23.822Z,98.97
2017-03-13T03:14:52.091Z,98.29
2017-03-13T03:15:20.366Z,98.87
2017-03-13T03:15:48.574Z,98.97
2017-03-13T03:16:16.720Z,98.49
2017-03-13T03:16:44.909Z,98.78
2017-03-13T03:17:13.130Z,98.68
2017-03-13T03:17:41.445Z,98.68
2017-03-13T03:18:09.548Z,98.78
2017-03-13T03:18:37.786Z,98.78
2017-03-13T03:19:05.895Z,98.29
2017-03-13T03:19:34.126Z,98.78
2017-03-13T03:20:02.492Z,98.39
2017-03-13T03:20:30.556Z,98.68
2017-03-13T03:20:58.836Z,98.39
2017-03-13T03:21:26.891Z,98.49
2017-03-13T03:21:55.096Z,98.39
2017-03-13T03:22:23.430Z,98.29
2017-03-13T03:22:55.835Z,98.68
2017-03-13T03:23:24.006Z,98.68
2017-03-13T03:23:52.307Z,98.1
2017-03-13T03:24:20.626Z,98.2
2017-03-13T03:24:48.927Z,98.49
2017-03-13T03:25:17.272Z,98.2
2017-03-13T03:25:45.599Z,98.29
2017-03-13T03:26:13.800Z,98.68
2017-03-13T03:26:41.885Z,98
2017-03-13T03:27:10.188Z,98.49
2017-03-13T03:27:38.496Z,98.1
2017-03-13T03:28:06.652Z,98.29
2017-03-13T03:28:34.946Z,98.39
2017-03-13T03:29:03.213Z,98
2017-03-13T03:29:31.459Z,98.1
2017-03-13T03:29:59.662Z,98.2
2017-03-13T03:30:27.902Z,98.49
2017-03-13T03:30:56.179Z,98.39
2017-03-13T03:31:24.395Z,98.49
2017-03-13T03:31:52.630Z,98.39
2017-03-13T03:32:20.845Z,98.39
2017-03-13T03:32:49.104Z,98.39
2017-03-13T03:33:17.384Z,98.39
2017-03-13T03:33:45.537Z,98.29
2017-03-13T03:34:13.825Z,98.29
2017-03-13T03:34:42.039Z,98.68
2017-03-13T03:35:10.222Z,98.78
2017-03-13T03:35:38.419Z,98.58
2017-03-13T03:36:06.706Z,98.58
2017-03-13T03:36:35.000Z,98.63
2017-03-13T03:37:03.183Z,98.92
2017-03-13T03:37:31.362Z,98.58
2017-03-13T03:37:59.779Z,98.97
2017-03-13T03:38:27.883Z,99.5
2017-03-13T03:38:56.052Z,99.16
2017-03-13T03:39:24.256Z,99.4
2017-03-13T03:39:52.448Z,99.4
2017-03-13T03:40:20.694Z,99.5
2017-03-13T03:40:48.953Z,99.88
2017-03-13T03:41:17.224Z,99.99
2017-03-13T03:41:45.338Z,99.99
2017-03-13T03:42:13.555Z,99.99
2017-03-13T03:42:41.717Z,99.99
2017-03-13T03:43:10.230Z,99.99
2017-03-13T03:43:38.494Z,99.99
2017-03-13T03:44:06.705Z,99.99
2017-03-13T03:44:34.906Z,99.88
2017-03-13T03:45:03.097Z,99.69
2017-03-13T03:45:31.372Z,99.98
2017-03-13T03:45:59.537Z,99.88
2017-03-13T03:46:27.784Z,99.6
2017-03-13T03:46:55.866Z,99.99
2017-03-13T03:47:24.154Z,99.99
2017-03-13T03:47:52.354Z,99.99
2017-03-13T03:48:20.646Z,99.79
2017-03-13T03:48:48.867Z,99.88
2017-03-13T03:49:17.097Z,99.79
2017-03-13T03:49:45.251Z,99.99
2017-03-13T03:50:13.500Z,99.99
2017-03-13T03:50:41.643Z,99.5
2017-03-13T03:51:09.853Z,99.26
2017-03-13T03:51:38.114Z,99.07
2017-03-13T03:52:06.392Z,99.45
2017-03-13T03:52:34.702Z,98.82
2017-03-13T03:53:03.093Z,99.99
2017-03-13T03:53:31.122Z,99.99
2017-03-13T03:53:59.335Z,99.69
2017-03-13T03:54:27.452Z,99.69
2017-03-13T03:54:55.422Z,99.99
2017-03-13T03:55:23.657Z,99.99
2017-03-13T03:55:51.842Z,99.99
2017-03-13T03:56:20.104Z,99.99
2017-03-13T03:56:48.174Z,99.99
2017-03-13T03:57:16.366Z,99.99
2017-03-13T03:57:44.663Z,99.99
2017-03-13T03:58:12.882Z,99.99
2017-03-13T03:58:41.104Z,99.99
2017-03-13T03:59:09.334Z,99.99
2017-03-13T03:59:37.464Z,99.99
2017-03-13T04:00:05.667Z,99.99
2017-03-13T04:00:33.852Z,99.99
2017-03-13T04:01:02.161Z,99.99
2017-03-13T04:01:30.360Z,99.99
2017-03-13T04:01:58.645Z,99.99
2017-03-13T04:02:26.794Z,99.99
2017-03-13T04:02:55.054Z,99.99
2017-03-13T04:03:23.428Z,99.99
2017-03-13T04:03:51.530Z,99.99
2017-03-13T04:04:19.697Z,99.99
2017-03-13T04:04:48.019Z,99.99
2017-03-13T04:05:16.201Z,99.99
2017-03-13T04:05:44.370Z,99.99
2017-03-13T04:06:12.601Z,99.99
2017-03-13T04:06:40.791Z,99.99
2017-03-13T04:07:09.008Z,99.99
2017-03-13T04:07:37.193Z,99.99
2017-03-13T04:08:05.260Z,99.99
2017-03-13T04:08:33.487Z,99.99
2017-03-13T04:09:01.634Z,99.99
2017-03-13T04:09:29.835Z,99.99
2017-03-13T04:09:57.999Z,99.99
2017-03-13T04:10:26.187Z,99.99
2017-03-13T04:10:54.367Z,99.99
2017-03-13T04:11:22.579Z,99.99
2017-03-13T04:11:50.798Z,99.99
2017-03-13T04:12:19.014Z,99.99
2017-03-13T04:12:47.111Z,99.99
2017-03-13T04:13:15.478Z,99.99
2017-03-13T04:13:43.673Z,99.99
2017-03-13T04:14:11.879Z,99.99
2017-03-13T04:14:39.989Z,99.99
2017-03-13T04:15:08.203Z,99.99
2017-03-13T04:15:36.460Z,99.99
2017-03-13T04:16:04.790Z,99.99
2017-03-13T04:16:32.930Z,99.99
2017-03-13T04:17:01.150Z,99.99
2017-03-13T04:17:29.450Z,99.99
2017-03-13T04:17:57.635Z,99.99
2017-03-13T04:18:26.132Z,99.99
2017-03-13T04:18:54.312Z,99.99
2017-03-13T04:19:22.563Z,99.99
2017-03-13T04:19:50.835Z,99.99
2017-03-13T04:20:19.110Z,99.99
2017-03-13T04:20:47.250Z,99.99
2017-03-13T04:21:15.527Z,99.99
2017-03-13T04:21:43.645Z,99.99
2017-03-13T04:22:11.919Z,99.99
2017-03-13T04:22:40.186Z,99.99
2017-03-13T04:23:08.386Z,99.99
2017-03-13T04:23:36.682Z,99.99
2017-03-13T04:24:04.966Z,99.99
2017-03-13T04:24:33.219Z,99.99
2017-03-13T04:25:01.529Z,99.99
2017-03-13T04:25:29.751Z,99.99
2017-03-13T04:25:58.023Z,99.99
2017-03-13T04:26:26.321Z,99.99
2017-03-13T04:26:54.660Z,99.99
2017-03-13T04:27:22.942Z,99.99
2017-03-13T04:27:51.179Z,99.99
2017-03-13T04:28:19.313Z,99.99
2017-03-13T04:28:47.545Z,99.99
2017-03-13T04:29:15.652Z,99.99
2017-03-13T04:29:43.909Z,99.99
2017-03-13T04:30:12.241Z,99.99
2017-03-13T04:30:40.454Z,99.99
2017-03-13T04:31:08.552Z,99.99
2017-03-13T04:31:36.822Z,99.99
2017-03-13T04:32:05.014Z,99.99
2017-03-13T04:32:33.214Z,99.99
2017-03-13T04:33:01.316Z,99.99
2017-03-13T04:33:29.631Z,99.99
2017-03-13T04:33:57.897Z,99.99
2017-03-13T04:34:26.100Z,99.99
2017-03-13T04:34:54.276Z,99.99
2017-03-13T04:35:22.540Z,99.99
2017-03-13T04:35:50.839Z,99.99
2017-03-13T04:36:19.043Z,99.99
2017-03-13T04:36:47.230Z,99.99
2017-03-13T04:37:15.476Z,99.99
2017-03-13T04:37:43.689Z,99.99
2017-03-13T04:38:11.948Z,99.99
2017-03-13T04:38:40.364Z,99.99
2017-03-13T04:39:08.668Z,99.99
2017-03-13T04:39:36.952Z,99.99
2017-03-13T04:40:05.259Z,99.99
2017-03-13T04:40:33.521Z,99.99
2017-03-13T04:41:01.819Z,99.99
2017-03-13T04:41:30.083Z,99.99
2017-03-13T04:41:58.329Z,99.99
2017-03-13T04:42:26.495Z,99.99
2017-03-13T04:42:54.722Z,99.99
2017-03-13T04:43:22.861Z,99.99
2017-03-13T04:43:51.143Z,99.99
2017-03-13T04:44:19.291Z,99.99
2017-03-13T04:44:47.458Z,99.99
2017-03-13T04:45:15.650Z,99.99
2017-03-13T04:45:43.825Z,99.99
2017-03-13T04:46:12.080Z,99.99
2017-03-13T04:46:40.229Z,99.99
2017-03-13T04:47:08.500Z,99.99
2017-03-13T04:47:36.637Z,99.99
2017-03-13T04:48:04.923Z,99.99
2017-03-13T04:48:33.294Z,99.99
2017-03-13T04:49:01.575Z,99.99
2017-03-13T04:49:29.855Z,99.99
2017-03-13T04:49:58.123Z,99.99
2017-03-13T04:50:26.381Z,99.99
2017-03-13T04:50:54.469Z,99.99
2017-03-13T04:51:22.807Z,99.99
2017-03-13T04:51:50.893Z,99.99
2017-03-13T04:52:19.200Z,99.99
2017-03-13T04:52:47.405Z,99.99
2017-03-13T04:53:15.607Z,99.99
2017-03-13T04:53:43.779Z,99.99
2017-03-13T04:54:11.925Z,99.99
2017-03-13T04:54:40.210Z,99.99
2017-03-13T04:55:08.470Z,99.99
2017-03-13T04:55:36.577Z,99.99
2017-03-13T04:56:04.798Z,99.99
2017-03-13T04:56:32.880Z,99.99
2017-03-13T04:57:01.087Z,99.99
2017-03-13T04:57:29.179Z,99.99
2017-03-13T04:57:57.322Z,99.99
2017-03-13T04:58:25.629Z,99.99
2017-03-13T04:58:53.960Z,99.99
2017-03-13T04:59:22.250Z,99.99
2017-03-13T04:59:50.530Z,99.99
2017-03-13T05:00:18.683Z,99.99
2017-03-13T05:00:46.974Z,99.99
2017-03-13T05:01:15.033Z,99.99
2017-03-13T05:01:43.249Z,99.99
2017-03-13T05:02:11.527Z,99.99
2017-03-13T05:02:39.780Z,99.99
2017-03-13T05:03:08.056Z,99.99
2017-03-13T05:03:36.225Z,99.99
2017-03-13T05:04:04.441Z,99.99
2017-03-13T05:04:32.622Z,99.99
2017-03-13T05:05:00.935Z,99.99
2017-03-13T05:05:29.159Z,99.99
2017-03-13T05:05:57.326Z,99.99
2017-03-13T05:06:25.596Z,99.99
2017-03-13T05:06:53.910Z,99.99
2017-03-13T05:07:22.132Z,99.99
2017-03-13T05:07:50.287Z,99.99
2017-03-13T05:08:18.539Z,99.99
2017-03-13T05:08:46.713Z,99.99
2017-03-13T05:09:14.958Z,99.99
2017-03-13T05:09:43.103Z,99.99
2017-03-13T05:10:11.390Z,99.99
2017-03-13T05:10:39.644Z,99.99
2017-03-13T05:11:07.967Z,99.99
2017-03-13T05:11:36.188Z,99.99
2017-03-13T05:12:04.487Z,99.99
2017-03-13T05:12:32.623Z,99.99
2017-03-13T05:13:00.904Z,99.99
2017-03-13T05:13:29.102Z,99.99
2017-03-13T05:13:57.424Z,99.99
2017-03-13T05:14:25.513Z,99.99
2017-03-13T05:14:53.799Z,99.99
2017-03-13T05:15:21.930Z,99.99
2017-03-13T05:15:50.209Z,99.99
2017-03-13T05:16:18.442Z,99.99
2017-03-13T05:16:46.628Z,99.99
2017-03-13T05:17:14.860Z,99.99
2017-03-13T05:17:43.031Z,99.99
2017-03-13T05:18:11.158Z,99.99
2017-03-13T05:18:39.391Z,99.99
2017-03-13T05:19:07.762Z,99.99
2017-03-13T05:19:36.059Z,99.99
2017-03-13T05:20:04.201Z,99.99
2017-03-13T05:20:32.376Z,99.99
2017-03-13T05:21:00.623Z,99.99
2017-03-13T05:21:28.840Z,99.99
2017-03-13T05:21:57.127Z,99.99
2017-03-13T05:22:25.409Z,99.99
2017-03-13T05:22:53.489Z,99.99
2017-03-13T05:23:21.727Z,99.99
2017-03-13T05:23:50.016Z,99.99
2017-03-13T05:24:18.309Z,99.99
2017-03-13T05:24:46.637Z,99.99
2017-03-13T05:25:14.969Z,99.99
2017-03-13T05:25:43.150Z,99.99
2017-03-13T05:26:11.246Z,99.99
2017-03-13T05:26:39.448Z,99.99
2017-03-13T05:27:07.655Z,99.99
2017-03-13T05:27:35.958Z,99.99
2017-03-13T05:28:04.205Z,99.99
2017-03-13T05:28:32.492Z,99.99
2017-03-13T05:29:00.900Z,99.99
2017-03-13T05:29:29.087Z,99.99
2017-03-13T05:29:57.350Z,99.99
2017-03-13T05:30:25.589Z,99.99
2017-03-13T05:30:53.862Z,99.99
2017-03-13T05:31:22.172Z,99.99
2017-03-13T05:31:50.451Z,99.99
2017-03-13T05:32:18.748Z,99.99
2017-03-13T05:32:46.941Z,99.99
2017-03-13T05:33:15.139Z,99.99
2017-03-13T05:33:43.397Z,99.99
2017-03-13T05:34:11.569Z,99.99
2017-03-13T05:34:39.737Z,99.99
2017-03-13T05:35:08.053Z,99.99
2017-03-13T05:35:36.162Z,99.99
2017-03-13T05:36:04.378Z,99.99
2017-03-13T05:36:32.691Z,99.99
2017-03-13T05:37:00.852Z,99.99
2017-03-13T05:37:29.093Z,99.99
2017-03-13T05:37:57.355Z,99.99
2017-03-13T05:38:25.538Z,99.99
2017-03-13T05:38:53.900Z,99.99
2017-03-13T05:39:22.147Z,99.99
2017-03-13T05:39:50.287Z,99.99
2017-03-13T05:40:18.491Z,99.99
2017-03-13T05:40:46.773Z,99.99
2017-03-13T05:41:14.994Z,99.99
2017-03-13T05:41:43.077Z,99.99
2017-03-13T05:42:11.330Z,99.99
2017-03-13T05:42:39.566Z,99.99
2017-03-13T05:43:07.762Z,99.99
2017-03-13T05:43:36.045Z,99.99
2017-03-13T05:44:04.648Z,99.99
2017-03-13T05:44:32.835Z,99.99
2017-03-13T05:45:01.126Z,99.99
2017-03-13T05:45:29.373Z,99.99
2017-03-13T05:45:57.557Z,99.99
2017-03-13T05:46:25.856Z,99.99
2017-03-13T05:46:54.106Z,99.99
2017-03-13T05:47:22.346Z,99.99
2017-03-13T05:47:50.636Z,99.99
2017-03-13T05:48:18.905Z,99.99
2017-03-13T05:48:47.178Z,99.99
2017-03-13T05:49:15.283Z,99.99
2017-03-13T05:49:43.562Z,99.99
2017-03-13T05:50:11.621Z,99.99
2017-03-13T05:50:39.872Z,99.99
2017-03-13T05:51:08.070Z,99.99
2017-03-13T05:51:36.253Z,99.99
2017-03-13T05:52:04.436Z,99.99
2017-03-13T05:52:32.578Z,99.99
2017-03-13T05:53:00.869Z,99.99
2017-03-13T05:53:29.169Z,99.99
2017-03-13T05:53:57.371Z,99.99
2017-03-13T05:54:25.739Z,99.99
2017-03-13T05:54:53.958Z,99.99
2017-03-13T05:55:22.154Z,99.99
2017-03-13T05:55:50.433Z,99.99
2017-03-13T05:56:18.686Z,99.99
2017-03-13T05:56:46.773Z,99.99
2017-03-13T05:57:14.864Z,99.99
2017-03-13T05:57:43.134Z,99.99
2017-03-13T05:58:11.132Z,99.79
2017-03-13T05:58:39.438Z,99.99
2017-03-13T05:59:07.689Z,99.99
2017-03-13T05:59:35.857Z,99.99
2017-03-13T06:00:04.005Z,99.99
2017-03-13T06:00:32.255Z,99.99
2017-03-13T06:01:00.383Z,99.99
2017-03-13T06:01:28.517Z,99.99
2017-03-13T06:01:56.682Z,99.99
2017-03-13T06:02:24.961Z,99.99
2017-03-13T06:02:53.099Z,99.99
2017-03-13T06:03:21.400Z,99.99
2017-03-13T06:03:49.475Z,99.99
2017-03-13T06:04:17.672Z,99.99
2017-03-13T06:04:45.994Z,99.99